Iver, United Kingdom
Current Conditions -  °F | °C
As of 3:50 AM on Sunday 25 Jan 2015 (Local Time) from EGLL Reporting Station
Clear Clear  
Wind Chill: -4°   Ceiling: Unl
Heat Index:   Visibility: 6mi
Dew Point: -1°   Wind: 7mph
Humidity: 93%   Direction: 270°W
Pressure: 30.48"   Gusts: NA
Location:  51.5°N, 0.5°W
Report Text: EGLL 250350Z 27006KT CAVOK 00/M01 Q1032
Loading
Personal Weather Stations






























Interactive Weather Map New forecast layout! Learn more

10-Day Weather Forecast

Advertisements
Track Severe Weather on mobile